sensor_id;sensor_type;location;lat;lon;timestamp;temperature;humidity
4314;DHT22;2170;48.794;9.182;2023-08-12T00:00:55;21.70;99.90
4314;DHT22;2170;48.794;9.182;2023-08-12T00:03:29;21.70;99.90
4314;DHT22;2170;48.794;9.182;2023-08-12T00:06:00;21.70;99.90
4314;DHT22;2170;48.794;9.182;2023-08-12T00:08:32;21.60;99.90
4314;DHT22;2170;48.794;9.182;2023-08-12T00:11:03;21.60;99.90
4314;DHT22;2170;48.794;9.182;2023-08-12T00:13:38;21.60;99.90
4314;DHT22;2170;48.794;9.182;2023-08-12T00:16:06;21.50;99.90
4314;DHT22;2170;48.794;9.182;2023-08-12T00:18:37;21.50;99.90
4314;DHT22;2170;48.794;9.182;2023-08-12T00:21:09;21.50;99.90
4314;DHT22;2170;48.794;9.182;2023-08-12T00:23:47;21.50;99.90
4314;DHT22;2170;48.794;9.182;2023-08-12T00:26:21;21.40;99.90
4314;DHT22;2170;48.794;9.182;2023-08-12T00:28:53;21.40;99.90
4314;DHT22;2170;48.794;9.182;2023-08-12T00:31:27;21.30;99.90
4314;DHT22;2170;48.794;9.182;2023-08-12T00:34:00;21.30;99.90
4314;DHT22;2170;48.794;9.182;2023-08-12T00:36:32;21.20;99.90
4314;DHT22;2170;48.794;9.182;2023-08-12T00:39:01;21.20;99.90
4314;DHT22;2170;48.794;9.182;2023-08-12T00:41:30;21.20;99.90
4314;DHT22;2170;48.794;9.182;2023-08-12T00:43:58;21.20;99.90
4314;DHT22;2170;48.794;9.182;2023-08-12T00:46:25;21.20;99.90
4314;DHT22;2170;48.794;9.182;2023-08-12T00:48:53;21.10;99.90
4314;DHT22;2170;48.794;9.182;2023-08-12T00:51:26;21.20;99.90
4314;DHT22;2170;48.794;9.182;2023-08-12T00:54:02;21.10;99.90
4314;DHT22;2170;48.794;9.182;2023-08-12T00:56:40;21.10;99.90
4314;DHT22;2170;48.794;9.182;2023-08-12T00:59:13;21.00;99.90
4314;DHT22;2170;48.794;9.182;2023-08-12T01:01:47;21.00;99.90
4314;DHT22;2170;48.794;9.182;2023-08-12T01:04:19;21.00;99.90
4314;DHT22;2170;48.794;9.182;2023-08-12T01:06:47;20.90;99.90
4314;DHT22;2170;48.794;9.182;2023-08-12T01:09:18;20.80;99.90
4314;DHT22;2170;48.794;9.182;2023-08-12T01:11:54;20.80;99.90
4314;DHT22;2170;48.794;9.182;2023-08-12T01:14:33;20.80;99.90
4314;DHT22;2170;48.794;9.182;2023-08-12T01:17:10;20.80;99.90
4314;DHT22;2170;48.794;9.182;2023-08-12T01:19:44;20.70;99.90
4314;DHT22;2170;48.794;9.182;2023-08-12T01:22:24;20.80;99.90
4314;DHT22;2170;48.794;9.182;2023-08-12T01:25:02;20.70;99.90
4314;DHT22;2170;48.794;9.182;2023-08-12T01:27:35;20.70;99.90
4314;DHT22;2170;48.794;9.182;2023-08-12T01:30:23;20.70;99.90
4314;DHT22;2170;48.794;9.182;2023-08-12T01:32:55;20.60;99.90
4314;DHT22;2170;48.794;9.182;2023-08-12T01:35:39;20.60;99.90
4314;DHT22;2170;48.794;9.182;2023-08-12T01:38:14;20.60;99.90
4314;DHT22;2170;48.794;9.182;2023-08-12T01:43:58;20.50;99.90
4314;DHT22;2170;48.794;9.182;2023-08-12T01:46:37;20.50;99.90
4314;DHT22;2170;48.794;9.182;2023-08-12T01:49:17;20.40;99.90
4314;DHT22;2170;48.794;9.182;2023-08-12T01:51:55;20.40;99.90
4314;DHT22;2170;48.794;9.182;2023-08-12T01:54:51;20.50;99.90
4314;DHT22;2170;48.794;9.182;2023-08-12T01:57:31;20.30;99.90
4314;DHT22;2170;48.794;9.182;2023-08-12T02:00:17;20.20;99.90
4314;DHT22;2170;48.794;9.182;2023-08-12T02:02:52;20.20;99.90
4314;DHT22;2170;48.794;9.182;2023-08-12T02:05:29;20.10;99.90
4314;DHT22;2170;48.794;9.182;2023-08-12T02:08:08;20.10;99.90
4314;DHT22;2170;48.794;9.182;2023-08-12T02:10:39;20.10;99.90
4314;DHT22;2170;48.794;9.182;2023-08-12T02:13:19;20.10;99.90
4314;DHT22;2170;48.794;9.182;2023-08-12T02:16:08;20.10;99.90
4314;DHT22;2170;48.794;9.182;2023-08-12T02:18:50;20.00;99.90
4314;DHT22;2170;48.794;9.182;2023-08-12T02:21:34;20.10;99.90
4314;DHT22;2170;48.794;9.182;2023-08-12T02:24:08;20.10;99.90
4314;DHT22;2170;48.794;9.182;2023-08-12T02:26:46;20.20;99.90
4314;DHT22;2170;48.794;9.182;2023-08-12T02:29:22;20.10;99.90
4314;DHT22;2170;48.794;9.182;2023-08-12T02:31:49;20.10;99.90
4314;DHT22;2170;48.794;9.182;2023-08-12T02:34:24;20.10;99.90
4314;DHT22;2170;48.794;9.182;2023-08-12T02:36:58;20.10;99.90
4314;DHT22;2170;48.794;9.182;2023-08-12T02:39:29;20.10;99.90
4314;DHT22;2170;48.794;9.182;2023-08-12T02:41:57;20.20;99.90
4314;DHT22;2170;48.794;9.182;2023-08-12T02:44:28;20.20;99.90
4314;DHT22;2170;48.794;9.182;2023-08-12T02:46:58;20.10;99.90
4314;DHT22;2170;48.794;9.182;2023-08-12T02:49:26;20.10;99.90
4314;DHT22;2170;48.794;9.182;2023-08-12T02:51:57;20.00;99.90
4314;DHT22;2170;48.794;9.182;2023-08-12T02:54:25;20.10;99.90
4314;DHT22;2170;48.794;9.182;2023-08-12T02:56:59;20.10;99.90
4314;DHT22;2170;48.794;9.182;2023-08-12T02:59:31;20.10;99.90
4314;DHT22;2170;48.794;9.182;2023-08-12T03:02:05;20.10;99.90
4314;DHT22;2170;48.794;9.182;2023-08-12T03:04:42;20.00;99.90
4314;DHT22;2170;48.794;9.182;2023-08-12T03:07:20;20.00;99.90
4314;DHT22;2170;48.794;9.182;2023-08-12T03:09:55;20.00;99.90
4314;DHT22;2170;48.794;9.182;2023-08-12T03:12:35;20.00;99.90
4314;DHT22;2170;48.794;9.182;2023-08-12T03:15:20;20.00;99.90
4314;DHT22;2170;48.794;9.182;2023-08-12T03:17:53;20.00;99.90
4314;DHT22;2170;48.794;9.182;2023-08-12T03:20:24;20.00;99.90
4314;DHT22;2170;48.794;9.182;2023-08-12T03:22:55;19.70;99.90
4314;DHT22;2170;48.794;9.182;2023-08-12T03:25:26;20.00;99.90
4314;DHT22;2170;48.794;9.182;2023-08-12T03:28:12;20.10;99.90
4314;DHT22;2170;48.794;9.182;2023-08-12T03:30:53;20.00;99.90
4314;DHT22;2170;48.794;9.182;2023-08-12T03:33:30;20.00;99.90
4314;DHT22;2170;48.794;9.182;2023-08-12T03:36:06;20.00;99.90
4314;DHT22;2170;48.794;9.182;2023-08-12T03:38:44;20.00;99.90
4314;DHT22;2170;48.794;9.182;2023-08-12T03:41:12;20.10;99.90
4314;DHT22;2170;48.794;9.182;2023-08-12T03:43:43;20.10;99.90
4314;DHT22;2170;48.794;9.182;2023-08-12T03:46:18;20.10;99.90
4314;DHT22;2170;48.794;9.182;2023-08-12T03:48:55;20.10;99.90
4314;DHT22;2170;48.794;9.182;2023-08-12T03:51:31;20.10;99.90
4314;DHT22;2170;48.794;9.182;2023-08-12T03:54:01;20.10;99.90
4314;DHT22;2170;48.794;9.182;2023-08-12T03:56:41;20.10;99.90
4314;DHT22;2170;48.794;9.182;2023-08-12T03:59:09;20.10;99.90
4314;DHT22;2170;48.794;9.182;2023-08-12T04:01:41;20.00;99.90
4314;DHT22;2170;48.794;9.182;2023-08-12T04:04:17;20.10;99.90
4314;DHT22;2170;48.794;9.182;2023-08-12T04:06:48;20.00;99.90
4314;DHT22;2170;48.794;9.182;2023-08-12T04:09:17;20.10;99.90
4314;DHT22;2170;48.794;9.182;2023-08-12T04:11:50;20.10;99.90
4314;DHT22;2170;48.794;9.182;2023-08-12T04:14:19;20.10;99.90
4314;DHT22;2170;48.794;9.182;2023-08-12T04:16:52;20.10;99.90
4314;DHT22;2170;48.794;9.182;2023-08-12T04:19:27;20.10;99.90
4314;DHT22;2170;48.794;9.182;2023-08-12T04:21:55;20.10;99.90
4314;DHT22;2170;48.794;9.182;2023-08-12T04:24:24;19.90;99.90
4314;DHT22;2170;48.794;9.182;2023-08-12T04:26:53;20.10;99.90
4314;DHT22;2170;48.794;9.182;2023-08-12T04:29:25;20.10;99.90
4314;DHT22;2170;48.794;9.182;2023-08-12T04:31:54;19.80;99.90
4314;DHT22;2170;48.794;9.182;2023-08-12T04:34:22;20.10;99.90
4314;DHT22;2170;48.794;9.182;2023-08-12T04:36:49;20.10;99.90
4314;DHT22;2170;48.794;9.182;2023-08-12T04:39:17;20.10;99.90
4314;DHT22;2170;48.794;9.182;2023-08-12T04:41:47;20.10;99.90
4314;DHT22;2170;48.794;9.182;2023-08-12T04:44:17;20.20;99.90
4314;DHT22;2170;48.794;9.182;2023-08-12T04:46:46;20.20;99.90
4314;DHT22;2170;48.794;9.182;2023-08-12T04:49:19;20.20;99.90
4314;DHT22;2170;48.794;9.182;2023-08-12T04:51:47;20.20;99.90
4314;DHT22;2170;48.794;9.182;2023-08-12T04:54:16;20.20;99.90
4314;DHT22;2170;48.794;9.182;2023-08-12T04:56:46;20.20;99.90
4314;DHT22;2170;48.794;9.182;2023-08-12T04:59:15;20.00;99.90
4314;DHT22;2170;48.794;9.182;2023-08-12T05:01:46;20.20;99.90
4314;DHT22;2170;48.794;9.182;2023-08-12T05:04:30;20.20;99.90
4314;DHT22;2170;48.794;9.182;2023-08-12T05:06:57;20.20;99.90
4314;DHT22;2170;48.794;9.182;2023-08-12T05:09:28;20.30;99.90
4314;DHT22;2170;48.794;9.182;2023-08-12T05:11:56;20.30;99.90
4314;DHT22;2170;48.794;9.182;2023-08-12T05:14:28;20.30;99.90
4314;DHT22;2170;48.794;9.182;2023-08-12T05:17:02;20.30;99.90
4314;DHT22;2170;48.794;9.182;2023-08-12T05:19:34;20.40;99.90
4314;DHT22;2170;48.794;9.182;2023-08-12T05:22:02;20.40;99.90
4314;DHT22;2170;48.794;9.182;2023-08-12T05:24:30;20.40;99.90
4314;DHT22;2170;48.794;9.182;2023-08-12T05:26:58;20.40;99.90
4314;DHT22;2170;48.794;9.182;2023-08-12T05:29:27;20.30;99.90
4314;DHT22;2170;48.794;9.182;2023-08-12T05:31:55;20.30;99.90
4314;DHT22;2170;48.794;9.182;2023-08-12T05:34:25;20.40;99.90
4314;DHT22;2170;48.794;9.182;2023-08-12T05:37:03;20.40;99.90
4314;DHT22;2170;48.794;9.182;2023-08-12T05:39:36;20.40;99.90
4314;DHT22;2170;48.794;9.182;2023-08-12T05:42:13;20.80;99.90
4314;DHT22;2170;48.794;9.182;2023-08-12T05:44:49;20.50;99.90
4314;DHT22;2170;48.794;9.182;2023-08-12T05:47:21;20.50;99.90
4314;DHT22;2170;48.794;9.182;2023-08-12T05:49:55;20.60;99.90
4314;DHT22;2170;48.794;9.182;2023-08-12T05:52:40;20.50;99.90
4314;DHT22;2170;48.794;9.182;2023-08-12T05:55:22;20.50;99.90
4314;DHT22;2170;48.794;9.182;2023-08-12T05:57:55;20.60;99.90
4314;DHT22;2170;48.794;9.182;2023-08-12T06:00:29;20.50;99.90
4314;DHT22;2170;48.794;9.182;2023-08-12T06:02:59;20.80;99.90
4314;DHT22;2170;48.794;9.182;2023-08-12T06:05:27;20.60;99.90
4314;DHT22;2170;48.794;9.182;2023-08-12T06:07:57;20.60;99.90
4314;DHT22;2170;48.794;9.182;2023-08-12T06:10:25;20.70;99.90
4314;DHT22;2170;48.794;9.182;2023-08-12T06:12:55;20.80;99.90
4314;DHT22;2170;48.794;9.182;2023-08-12T06:15:24;20.80;99.90
4314;DHT22;2170;48.794;9.182;2023-08-12T06:17:51;20.80;99.90
4314;DHT22;2170;48.794;9.182;2023-08-12T06:20:19;20.80;99.90
4314;DHT22;2170;48.794;9.182;2023-08-12T06:22:47;20.80;99.90
4314;DHT22;2170;48.794;9.182;2023-08-12T06:25:22;21.10;99.90
4314;DHT22;2170;48.794;9.182;2023-08-12T06:27:50;20.90;99.90
4314;DHT22;2170;48.794;9.182;2023-08-12T06:30:18;20.90;99.90
4314;DHT22;2170;48.794;9.182;2023-08-12T06:32:51;20.90;99.90
4314;DHT22;2170;48.794;9.182;2023-08-12T06:35:19;21.00;99.90
4314;DHT22;2170;48.794;9.182;2023-08-12T06:37:47;21.10;99.90
4314;DHT22;2170;48.794;9.182;2023-08-12T06:40:14;21.10;99.90
4314;DHT22;2170;48.794;9.182;2023-08-12T06:42:45;21.20;99.90
4314;DHT22;2170;48.794;9.182;2023-08-12T06:45:13;21.30;99.90
4314;DHT22;2170;48.794;9.182;2023-08-12T06:47:41;21.30;99.90
4314;DHT22;2170;48.794;9.182;2023-08-12T06:50:10;21.40;99.90
4314;DHT22;2170;48.794;9.182;2023-08-12T06:52:38;21.50;99.90
4314;DHT22;2170;48.794;9.182;2023-08-12T06:55:06;21.50;99.90
4314;DHT22;2170;48.794;9.182;2023-08-12T06:57:34;21.60;99.90
4314;DHT22;2170;48.794;9.182;2023-08-12T07:00:05;21.70;99.90
4314;DHT22;2170;48.794;9.182;2023-08-12T07:02:34;21.90;99.90
4314;DHT22;2170;48.794;9.182;2023-08-12T07:05:02;22.00;99.90
4314;DHT22;2170;48.794;9.182;2023-08-12T07:07:33;22.20;99.90
4314;DHT22;2170;48.794;9.182;2023-08-12T07:10:01;22.30;99.90
4314;DHT22;2170;48.794;9.182;2023-08-12T07:12:33;22.30;99.90
4314;DHT22;2170;48.794;9.182;2023-08-12T07:15:09;22.40;99.90
4314;DHT22;2170;48.794;9.182;2023-08-12T07:17:47;22.60;99.90
4314;DHT22;2170;48.794;9.182;2023-08-12T07:20:16;22.80;99.90
4314;DHT22;2170;48.794;9.182;2023-08-12T07:22:48;22.80;99.90
4314;DHT22;2170;48.794;9.182;2023-08-12T07:25:19;22.70;99.90
4314;DHT22;2170;48.794;9.182;2023-08-12T07:27:50;22.80;99.90
4314;DHT22;2170;48.794;9.182;2023-08-12T07:30:21;22.80;99.90
4314;DHT22;2170;48.794;9.182;2023-08-12T07:32:52;22.90;99.90
4314;DHT22;2170;48.794;9.182;2023-08-12T07:35:23;23.20;99.90
4314;DHT22;2170;48.794;9.182;2023-08-12T07:37:52;23.30;99.90
4314;DHT22;2170;48.794;9.182;2023-08-12T07:40:23;23.30;99.90
4314;DHT22;2170;48.794;9.182;2023-08-12T07:42:51;23.30;99.90
4314;DHT22;2170;48.794;9.182;2023-08-12T07:45:23;23.50;99.90
4314;DHT22;2170;48.794;9.182;2023-08-12T07:47:51;23.70;99.90
4314;DHT22;2170;48.794;9.182;2023-08-12T07:50:23;23.80;99.90
4314;DHT22;2170;48.794;9.182;2023-08-12T07:52:53;23.90;99.90
4314;DHT22;2170;48.794;9.182;2023-08-12T07:55:23;24.00;99.90
4314;DHT22;2170;48.794;9.182;2023-08-12T07:57:55;24.10;99.90
4314;DHT22;2170;48.794;9.182;2023-08-12T08:00:30;24.30;99.90
4314;DHT22;2170;48.794;9.182;2023-08-12T08:03:00;24.40;99.90
4314;DHT22;2170;48.794;9.182;2023-08-12T08:05:28;24.60;99.90
4314;DHT22;2170;48.794;9.182;2023-08-12T08:07:56;24.70;99.90
4314;DHT22;2170;48.794;9.182;2023-08-12T08:10:28;24.70;99.90
4314;DHT22;2170;48.794;9.182;2023-08-12T08:12:56;24.90;99.90
4314;DHT22;2170;48.794;9.182;2023-08-12T08:15:28;25.00;99.90
4314;DHT22;2170;48.794;9.182;2023-08-12T08:17:56;25.10;99.90
4314;DHT22;2170;48.794;9.182;2023-08-12T08:20:25;25.30;99.90
4314;DHT22;2170;48.794;9.182;2023-08-12T08:22:59;25.60;99.90
4314;DHT22;2170;48.794;9.182;2023-08-12T08:25:30;25.80;99.90
4314;DHT22;2170;48.794;9.182;2023-08-12T08:28:01;25.90;99.90
4314;DHT22;2170;48.794;9.182;2023-08-12T08:30:33;25.90;99.90
4314;DHT22;2170;48.794;9.182;2023-08-12T08:33:09;25.80;99.90
4314;DHT22;2170;48.794;9.182;2023-08-12T08:35:51;26.00;99.90
4314;DHT22;2170;48.794;9.182;2023-08-12T08:38:25;26.20;99.90
4314;DHT22;2170;48.794;9.182;2023-08-12T08:40:56;26.40;99.90
4314;DHT22;2170;48.794;9.182;2023-08-12T08:43:27;26.40;99.90
4314;DHT22;2170;48.794;9.182;2023-08-12T08:45:58;26.60;99.90
4314;DHT22;2170;48.794;9.182;2023-08-12T08:48:30;26.60;99.90
4314;DHT22;2170;48.794;9.182;2023-08-12T08:51:05;26.60;99.90
4314;DHT22;2170;48.794;9.182;2023-08-12T08:53:42;26.60;99.90
4314;DHT22;2170;48.794;9.182;2023-08-12T08:56:13;27.00;99.90
4314;DHT22;2170;48.794;9.182;2023-08-12T08:58:42;27.50;99.90
4314;DHT22;2170;48.794;9.182;2023-08-12T09:01:20;27.50;99.90
4314;DHT22;2170;48.794;9.182;2023-08-12T09:03:53;27.80;99.90
4314;DHT22;2170;48.794;9.182;2023-08-12T09:06:32;28.00;99.90
4314;DHT22;2170;48.794;9.182;2023-08-12T09:09:04;28.30;99.90
4314;DHT22;2170;48.794;9.182;2023-08-12T09:11:39;28.50;99.90
4314;DHT22;2170;48.794;9.182;2023-08-12T09:14:13;28.70;99.90
4314;DHT22;2170;48.794;9.182;2023-08-12T09:16:51;28.90;99.90
4314;DHT22;2170;48.794;9.182;2023-08-12T09:19:23;29.20;99.90
4314;DHT22;2170;48.794;9.182;2023-08-12T09:21:54;29.30;99.90
4314;DHT22;2170;48.794;9.182;2023-08-12T09:24:24;29.20;99.90
4314;DHT22;2170;48.794;9.182;2023-08-12T09:26:54;29.70;99.90
4314;DHT22;2170;48.794;9.182;2023-08-12T09:29:44;29.80;99.90
4314;DHT22;2170;48.794;9.182;2023-08-12T09:32:23;30.10;99.90
4314;DHT22;2170;48.794;9.182;2023-08-12T09:35:04;30.40;99.90
4314;DHT22;2170;48.794;9.182;2023-08-12T09:37:37;30.30;99.90
4314;DHT22;2170;48.794;9.182;2023-08-12T09:40:10;30.60;99.90
4314;DHT22;2170;48.794;9.182;2023-08-12T09:42:45;30.80;99.90
4314;DHT22;2170;48.794;9.182;2023-08-12T09:45:19;31.10;99.90
4314;DHT22;2170;48.794;9.182;2023-08-12T09:47:55;31.30;99.90
4314;DHT22;2170;48.794;9.182;2023-08-12T09:50:30;31.40;99.90
4314;DHT22;2170;48.794;9.182;2023-08-12T09:53:01;31.50;99.90
4314;DHT22;2170;48.794;9.182;2023-08-12T09:55:32;31.70;99.90
4314;DHT22;2170;48.794;9.182;2023-08-12T09:58:10;31.70;99.90
4314;DHT22;2170;48.794;9.182;2023-08-12T10:00:46;31.70;99.90
4314;DHT22;2170;48.794;9.182;2023-08-12T10:03:20;31.70;99.90
4314;DHT22;2170;48.794;9.182;2023-08-12T10:05:50;31.70;99.90
4314;DHT22;2170;48.794;9.182;2023-08-12T10:08:48;31.70;99.90
4314;DHT22;2170;48.794;9.182;2023-08-12T10:11:30;31.40;99.90
4314;DHT22;2170;48.794;9.182;2023-08-12T10:14:25;31.00;99.90
4314;DHT22;2170;48.794;9.182;2023-08-12T10:17:06;30.60;99.90
4314;DHT22;2170;48.794;9.182;2023-08-12T10:19:47;30.80;99.90
4314;DHT22;2170;48.794;9.182;2023-08-12T10:22:22;30.80;99.90
4314;DHT22;2170;48.794;9.182;2023-08-12T10:25:02;30.90;99.90
4314;DHT22;2170;48.794;9.182;2023-08-12T10:28:14;30.80;99.90
4314;DHT22;2170;48.794;9.182;2023-08-12T10:30:53;30.70;99.90
4314;DHT22;2170;48.794;9.182;2023-08-12T10:33:28;30.80;99.90
4314;DHT22;2170;48.794;9.182;2023-08-12T10:36:06;31.00;99.90
4314;DHT22;2170;48.794;9.182;2023-08-12T10:38:36;31.20;99.90
4314;DHT22;2170;48.794;9.182;2023-08-12T10:41:25;31.30;99.90
4314;DHT22;2170;48.794;9.182;2023-08-12T10:44:00;31.10;99.90
4314;DHT22;2170;48.794;9.182;2023-08-12T10:46:32;31.00;99.90
4314;DHT22;2170;48.794;9.182;2023-08-12T10:49:04;31.00;99.90
4314;DHT22;2170;48.794;9.182;2023-08-12T10:51:47;31.30;99.90
4314;DHT22;2170;48.794;9.182;2023-08-12T10:54:18;31.30;99.90
4314;DHT22;2170;48.794;9.182;2023-08-12T10:57:12;31.50;99.90
4314;DHT22;2170;48.794;9.182;2023-08-12T11:00:00;31.60;99.90
4314;DHT22;2170;48.794;9.182;2023-08-12T11:02:49;32.20;99.90
4314;DHT22;2170;48.794;9.182;2023-08-12T11:05:21;32.50;99.90
4314;DHT22;2170;48.794;9.182;2023-08-12T11:08:01;32.70;99.90
4314;DHT22;2170;48.794;9.182;2023-08-12T11:10:35;32.90;99.90
4314;DHT22;2170;48.794;9.182;2023-08-12T11:13:13;32.90;99.90
4314;DHT22;2170;48.794;9.182;2023-08-12T11:15:52;33.40;99.90
4314;DHT22;2170;48.794;9.182;2023-08-12T11:18:34;33.50;99.90
4314;DHT22;2170;48.794;9.182;2023-08-12T11:21:12;33.80;99.90
4314;DHT22;2170;48.794;9.182;2023-08-12T11:23:46;33.80;99.90
4314;DHT22;2170;48.794;9.182;2023-08-12T11:26:15;33.10;99.90
4314;DHT22;2170;48.794;9.182;2023-08-12T11:28:45;32.90;99.90
4314;DHT22;2170;48.794;9.182;2023-08-12T11:31:14;33.00;99.90
4314;DHT22;2170;48.794;9.182;2023-08-12T11:33:43;32.80;99.90
4314;DHT22;2170;48.794;9.182;2023-08-12T11:36:13;32.80;99.90
4314;DHT22;2170;48.794;9.182;2023-08-12T11:38:41;33.20;99.90
4314;DHT22;2170;48.794;9.182;2023-08-12T11:41:11;33.00;99.90
4314;DHT22;2170;48.794;9.182;2023-08-12T11:43:40;33.00;99.90
4314;DHT22;2170;48.794;9.182;2023-08-12T11:46:12;33.40;99.90
4314;DHT22;2170;48.794;9.182;2023-08-12T11:48:46;33.70;99.90
4314;DHT22;2170;48.794;9.182;2023-08-12T11:51:15;34.10;99.90
4314;DHT22;2170;48.794;9.182;2023-08-12T11:53:47;33.70;99.90
4314;DHT22;2170;48.794;9.182;2023-08-12T11:56:18;33.80;99.90
4314;DHT22;2170;48.794;9.182;2023-08-12T11:58:52;33.80;99.90
4314;DHT22;2170;48.794;9.182;2023-08-12T12:01:25;33.50;99.90
4314;DHT22;2170;48.794;9.182;2023-08-12T12:07:30;32.70;99.90
4314;DHT22;2170;48.794;9.182;2023-08-12T12:13:13;29.70;99.90
4314;DHT22;2170;48.794;9.182;2023-08-12T12:15:55;29.50;99.90
4314;DHT22;2170;48.794;9.182;2023-08-12T12:18:40;29.10;99.90
4314;DHT22;2170;48.794;9.182;2023-08-12T12:21:36;28.60;99.90
4314;DHT22;2170;48.794;9.182;2023-08-12T12:24:28;27.50;99.90
4314;DHT22;2170;48.794;9.182;2023-08-12T12:26:58;27.10;99.90
4314;DHT22;2170;48.794;9.182;2023-08-12T12:29:43;27.10;99.90
4314;DHT22;2170;48.794;9.182;2023-08-12T12:32:34;26.90;99.90
4314;DHT22;2170;48.794;9.182;2023-08-12T12:35:21;26.70;99.90
4314;DHT22;2170;48.794;9.182;2023-08-12T12:37:57;26.50;99.90
4314;DHT22;2170;48.794;9.182;2023-08-12T12:40:42;26.20;99.90
4314;DHT22;2170;48.794;9.182;2023-08-12T12:43:25;25.40;99.90
4314;DHT22;2170;48.794;9.182;2023-08-12T12:49:10;24.90;99.90
4314;DHT22;2170;48.794;9.182;2023-08-12T12:52:26;24.80;99.90
4314;DHT22;2170;48.794;9.182;2023-08-12T12:55:11;25.10;99.90
4314;DHT22;2170;48.794;9.182;2023-08-12T12:57:56;25.00;99.90
4314;DHT22;2170;48.794;9.182;2023-08-12T13:00:44;25.20;99.90
4314;DHT22;2170;48.794;9.182;2023-08-12T13:03:27;25.40;99.90
4314;DHT22;2170;48.794;9.182;2023-08-12T13:06:12;25.50;99.90
4314;DHT22;2170;48.794;9.182;2023-08-12T13:08:54;25.60;99.90
4314;DHT22;2170;48.794;9.182;2023-08-12T13:11:43;25.50;99.90
4314;DHT22;2170;48.794;9.182;2023-08-12T13:14:29;25.50;99.90
4314;DHT22;2170;48.794;9.182;2023-08-12T13:17:18;25.50;99.90
4314;DHT22;2170;48.794;9.182;2023-08-12T13:20:06;25.60;99.90
4314;DHT22;2170;48.794;9.182;2023-08-12T13:22:54;25.50;99.90
4314;DHT22;2170;48.794;9.182;2023-08-12T13:28:38;25.40;99.90
4314;DHT22;2170;48.794;9.182;2023-08-12T13:31:14;25.30;99.90
4314;DHT22;2170;48.794;9.182;2023-08-12T13:34:00;25.40;99.90
4314;DHT22;2170;48.794;9.182;2023-08-12T13:36:29;25.30;99.90
4314;DHT22;2170;48.794;9.182;2023-08-12T13:39:23;25.20;99.90
4314;DHT22;2170;48.794;9.182;2023-08-12T13:42:11;25.20;99.90
4314;DHT22;2170;48.794;9.182;2023-08-12T13:47:34;25.10;99.90
4314;DHT22;2170;48.794;9.182;2023-08-12T13:50:15;25.30;99.90
4314;DHT22;2170;48.794;9.182;2023-08-12T13:52:58;25.70;99.90
4314;DHT22;2170;48.794;9.182;2023-08-12T13:55:27;25.80;99.90
4314;DHT22;2170;48.794;9.182;2023-08-12T13:58:01;26.20;99.90
4314;DHT22;2170;48.794;9.182;2023-08-12T14:00:40;26.60;99.90
4314;DHT22;2170;48.794;9.182;2023-08-12T14:03:16;26.90;99.90
4314;DHT22;2170;48.794;9.182;2023-08-12T14:05:52;27.10;99.90
4314;DHT22;2170;48.794;9.182;2023-08-12T14:08:47;27.00;99.90
4314;DHT22;2170;48.794;9.182;2023-08-12T14:11:28;27.10;99.90
4314;DHT22;2170;48.794;9.182;2023-08-12T14:14:11;27.40;99.90
4314;DHT22;2170;48.794;9.182;2023-08-12T14:16:49;27.60;99.90
4314;DHT22;2170;48.794;9.182;2023-08-12T14:19:29;27.90;99.90
4314;DHT22;2170;48.794;9.182;2023-08-12T14:22:04;28.10;99.90
4314;DHT22;2170;48.794;9.182;2023-08-12T14:24:48;28.80;99.90
4314;DHT22;2170;48.794;9.182;2023-08-12T14:27:38;29.10;99.90
4314;DHT22;2170;48.794;9.182;2023-08-12T14:30:17;29.20;99.90
4314;DHT22;2170;48.794;9.182;2023-08-12T14:32:49;29.60;99.90
4314;DHT22;2170;48.794;9.182;2023-08-12T14:35:21;29.60;99.90
4314;DHT22;2170;48.794;9.182;2023-08-12T14:38:06;29.40;99.90
4314;DHT22;2170;48.794;9.182;2023-08-12T14:40:47;29.60;99.90
4314;DHT22;2170;48.794;9.182;2023-08-12T14:43:25;29.90;99.90
4314;DHT22;2170;48.794;9.182;2023-08-12T14:46:03;30.10;99.90
4314;DHT22;2170;48.794;9.182;2023-08-12T14:48:38;30.40;99.90
4314;DHT22;2170;48.794;9.182;2023-08-12T14:51:09;30.60;99.90
4314;DHT22;2170;48.794;9.182;2023-08-12T14:53:38;30.90;99.90
4314;DHT22;2170;48.794;9.182;2023-08-12T14:56:20;31.00;99.90
4314;DHT22;2170;48.794;9.182;2023-08-12T14:58:56;31.50;99.90
4314;DHT22;2170;48.794;9.182;2023-08-12T15:01:26;31.80;99.90
4314;DHT22;2170;48.794;9.182;2023-08-12T15:03:58;31.70;99.90
4314;DHT22;2170;48.794;9.182;2023-08-12T15:06:31;31.00;99.90
4314;DHT22;2170;48.794;9.182;2023-08-12T15:09:08;31.20;99.90
4314;DHT22;2170;48.794;9.182;2023-08-12T15:11:41;31.70;99.90
4314;DHT22;2170;48.794;9.182;2023-08-12T15:14:13;32.10;99.90
4314;DHT22;2170;48.794;9.182;2023-08-12T15:16:47;32.30;99.90
4314;DHT22;2170;48.794;9.182;2023-08-12T15:19:16;32.40;99.90
4314;DHT22;2170;48.794;9.182;2023-08-12T15:21:54;32.10;99.90
4314;DHT22;2170;48.794;9.182;2023-08-12T15:24:31;31.70;99.90
4314;DHT22;2170;48.794;9.182;2023-08-12T15:27:14;31.10;99.90
4314;DHT22;2170;48.794;9.182;2023-08-12T15:29:50;31.00;99.90
4314;DHT22;2170;48.794;9.182;2023-08-12T15:32:27;30.90;99.90
4314;DHT22;2170;48.794;9.182;2023-08-12T15:34:56;30.50;99.90
4314;DHT22;2170;48.794;9.182;2023-08-12T15:37:33;30.50;99.90
4314;DHT22;2170;48.794;9.182;2023-08-12T15:40:10;30.40;99.90
4314;DHT22;2170;48.794;9.182;2023-08-12T15:42:42;30.10;99.90
4314;DHT22;2170;48.794;9.182;2023-08-12T15:45:20;30.10;99.90
4314;DHT22;2170;48.794;9.182;2023-08-12T15:47:50;29.70;99.90
4314;DHT22;2170;48.794;9.182;2023-08-12T15:50:22;29.80;99.90
4314;DHT22;2170;48.794;9.182;2023-08-12T15:52:53;29.80;99.90
4314;DHT22;2170;48.794;9.182;2023-08-12T15:55:21;29.60;99.90
4314;DHT22;2170;48.794;9.182;2023-08-12T15:57:51;29.40;99.90
4314;DHT22;2170;48.794;9.182;2023-08-12T16:00:23;29.10;99.90
4314;DHT22;2170;48.794;9.182;2023-08-12T16:03:03;29.10;99.90
4314;DHT22;2170;48.794;9.182;2023-08-12T16:05:41;29.10;99.90
4314;DHT22;2170;48.794;9.182;2023-08-12T16:08:13;28.90;99.90
4314;DHT22;2170;48.794;9.182;2023-08-12T16:10:54;28.90;99.90
4314;DHT22;2170;48.794;9.182;2023-08-12T16:13:24;28.80;99.90
4314;DHT22;2170;48.794;9.182;2023-08-12T16:15:56;28.70;99.90
4314;DHT22;2170;48.794;9.182;2023-08-12T16:18:29;28.50;99.90
4314;DHT22;2170;48.794;9.182;2023-08-12T16:21:06;28.40;99.90
4314;DHT22;2170;48.794;9.182;2023-08-12T16:23:50;28.20;99.90
4314;DHT22;2170;48.794;9.182;2023-08-12T16:26:27;27.70;99.90
4314;DHT22;2170;48.794;9.182;2023-08-12T16:28:58;27.30;99.90
4314;DHT22;2170;48.794;9.182;2023-08-12T16:31:26;27.00;99.90
4314;DHT22;2170;48.794;9.182;2023-08-12T16:34:03;26.40;99.90
4314;DHT22;2170;48.794;9.182;2023-08-12T16:36:34;26.10;99.90
4314;DHT22;2170;48.794;9.182;2023-08-12T16:39:05;26.10;99.90
4314;DHT22;2170;48.794;9.182;2023-08-12T16:41:41;26.00;99.90
4314;DHT22;2170;48.794;9.182;2023-08-12T16:47:41;25.10;99.90
4314;DHT22;2170;48.794;9.182;2023-08-12T16:50:10;24.70;99.90
4314;DHT22;2170;48.794;9.182;2023-08-12T16:52:40;24.60;99.90
4314;DHT22;2170;48.794;9.182;2023-08-12T16:55:18;24.20;99.90
4314;DHT22;2170;48.794;9.182;2023-08-12T16:57:47;24.10;99.90
4314;DHT22;2170;48.794;9.182;2023-08-12T17:00:27;24.20;99.90
4314;DHT22;2170;48.794;9.182;2023-08-12T17:02:58;24.20;99.90
4314;DHT22;2170;48.794;9.182;2023-08-12T17:05:34;24.30;99.90
4314;DHT22;2170;48.794;9.182;2023-08-12T17:08:08;24.20;99.90
4314;DHT22;2170;48.794;9.182;2023-08-12T17:10:58;24.20;99.90
4314;DHT22;2170;48.794;9.182;2023-08-12T17:13:38;24.20;99.90